createdAt,value
2018-04-12T00:00:24.601Z,0
2018-04-12T00:01:05.090Z,0
2018-04-12T00:01:45.603Z,0
2018-04-12T00:02:26.084Z,0
2018-04-12T00:03:06.589Z,0
2018-04-12T00:03:47.091Z,0
2018-04-12T00:04:27.608Z,0
2018-04-12T00:05:08.121Z,0
2018-04-12T00:05:48.649Z,0
2018-04-12T00:06:29.166Z,0
2018-04-12T00:07:09.686Z,0
2018-04-12T00:07:50.213Z,0
2018-04-12T00:08:30.724Z,0
2018-04-12T00:09:11.239Z,0
2018-04-12T00:09:51.755Z,0
2018-04-12T00:10:32.270Z,0
2018-04-12T00:11:12.784Z,0
2018-04-12T00:11:53.310Z,0
2018-04-12T00:12:33.823Z,0
2018-04-12T00:13:14.333Z,0
2018-04-12T00:13:54.847Z,0
2018-04-12T00:14:35.400Z,0
2018-04-12T00:15:15.869Z,0
2018-04-12T00:15:56.395Z,0
2018-04-12T00:16:36.904Z,0
2018-04-12T00:17:17.420Z,0
2018-04-12T00:17:57.937Z,0
2018-04-12T00:18:38.455Z,0
2018-04-12T00:19:18.982Z,0
2018-04-12T00:19:59.490Z,0
2018-04-12T00:20:40.022Z,0
2018-04-12T00:21:20.553Z,0
2018-04-12T00:22:01.076Z,0
2018-04-12T00:22:41.621Z,0
2018-04-12T00:23:22.179Z,0
2018-04-12T00:24:02.696Z,0
2018-04-12T00:24:43.216Z,0
2018-04-12T00:25:23.743Z,0
2018-04-12T00:26:04.258Z,0
2018-04-12T00:26:44.793Z,0
2018-04-12T00:27:25.304Z,0
2018-04-12T00:28:05.831Z,0
2018-04-12T00:28:46.348Z,0
2018-04-12T00:29:26.863Z,0
2018-04-12T00:30:07.413Z,0
2018-04-12T00:30:47.925Z,0
2018-04-12T00:31:28.464Z,0
2018-04-12T00:32:08.979Z,0
2018-04-12T00:32:49.490Z,0
2018-04-12T00:33:30.015Z,0
2018-04-12T00:34:10.539Z,0
2018-04-12T00:34:51.058Z,0
2018-04-12T00:35:31.565Z,0
2018-04-12T00:36:12.082Z,0
2018-04-12T00:36:52.598Z,0
2018-04-12T00:37:33.122Z,0
2018-04-12T00:38:13.631Z,0
2018-04-12T00:38:54.148Z,0
2018-04-12T00:39:34.670Z,0
2018-04-12T00:40:15.175Z,0
2018-04-12T00:40:55.690Z,0
2018-04-12T00:41:36.214Z,0
2018-04-12T00:42:16.738Z,0
2018-04-12T00:42:57.290Z,0
2018-04-12T00:43:37.804Z,0
2018-04-12T00:44:18.318Z,0
2018-04-12T00:44:58.846Z,0
2018-04-12T00:45:39.359Z,0
2018-04-12T00:46:19.877Z,0
2018-04-12T00:47:00.394Z,0
2018-04-12T00:47:40.918Z,0
2018-04-12T00:48:21.433Z,0
2018-04-12T00:49:01.963Z,0
2018-04-12T00:49:42.474Z,0
2018-04-12T00:50:22.981Z,0
2018-04-12T00:51:03.493Z,0
2018-04-12T00:51:44.010Z,0
2018-04-12T00:52:24.527Z,0
2018-04-12T00:53:05.031Z,0
2018-04-12T00:53:45.548Z,0
2018-04-12T00:54:26.069Z,0
2018-04-12T00:55:06.587Z,0
2018-04-12T00:55:47.098Z,0
2018-04-12T00:56:27.615Z,0
2018-04-12T00:57:08.135Z,0
2018-04-12T00:57:48.649Z,0
2018-04-12T00:58:29.163Z,0
2018-04-12T00:59:09.672Z,0
2018-04-12T00:59:50.193Z,0
2018-04-12T01:00:30.705Z,0
2018-04-12T01:01:11.206Z,0
2018-04-12T01:01:51.720Z,0
2018-04-12T01:02:32.232Z,0
2018-04-12T01:03:12.751Z,0
2018-04-12T01:03:53.268Z,0
2018-04-12T01:04:33.825Z,0
2018-04-12T01:05:14.340Z,0
2018-04-12T01:05:54.861Z,0
2018-04-12T01:06:35.385Z,0
2018-04-12T01:07:15.895Z,0
2018-04-12T01:07:56.415Z,0
2018-04-12T01:08:36.933Z,0
2018-04-12T01:09:17.454Z,0
2018-04-12T01:09:57.979Z,0
2018-04-12T01:10:38.502Z,0
2018-04-12T01:11:19.010Z,0
2018-04-12T01:11:59.529Z,0
2018-04-12T01:12:40.049Z,0
2018-04-12T01:13:20.565Z,0
2018-04-12T01:14:01.077Z,0
2018-04-12T01:14:41.596Z,0
2018-04-12T01:15:22.110Z,0
2018-04-12T01:16:02.626Z,0
2018-04-12T01:16:43.147Z,0
2018-04-12T01:17:23.660Z,0
2018-04-12T01:18:04.174Z,0
2018-04-12T01:18:44.685Z,0
2018-04-12T01:19:25.206Z,0
2018-04-12T01:20:05.724Z,0
2018-04-12T01:20:46.243Z,0
2018-04-12T01:21:26.760Z,0
2018-04-12T01:22:07.268Z,0
2018-04-12T01:22:47.798Z,0
2018-04-12T01:23:28.317Z,0
2018-04-12T01:24:08.837Z,0
2018-04-12T01:24:49.348Z,0
2018-04-12T01:25:29.864Z,0
2018-04-12T01:26:10.371Z,0
2018-04-12T01:26:50.878Z,0
2018-04-12T01:27:31.391Z,0
2018-04-12T01:28:11.900Z,0
2018-04-12T01:28:52.421Z,0
2018-04-12T01:29:32.948Z,0
2018-04-12T01:30:13.472Z,0
2018-04-12T01:30:53.990Z,0
2018-04-12T01:31:34.506Z,0
2018-04-12T01:32:15.023Z,0
2018-04-12T01:32:55.550Z,0
2018-04-12T01:33:36.068Z,0
2018-04-12T01:34:16.575Z,0
2018-04-12T01:34:57.082Z,0
2018-04-12T01:35:37.598Z,0
2018-04-12T01:36:18.116Z,0
2018-04-12T01:36:58.638Z,0
2018-04-12T01:37:39.152Z,0
2018-04-12T01:38:19.662Z,0
2018-04-12T01:39:00.185Z,0
2018-04-12T01:39:40.697Z,0
2018-04-12T01:40:21.234Z,0
2018-04-12T01:41:01.748Z,0
2018-04-12T01:41:42.259Z,0
2018-04-12T01:42:22.784Z,0
2018-04-12T01:43:03.288Z,0
2018-04-12T01:43:43.813Z,0
2018-04-12T01:44:24.325Z,0
2018-04-12T01:45:04.841Z,0
2018-04-12T01:45:45.359Z,0
2018-04-12T01:46:25.864Z,0
2018-04-12T01:47:06.378Z,0
2018-04-12T01:47:46.905Z,0
2018-04-12T01:48:27.427Z,0
2018-04-12T01:49:07.940Z,0
2018-04-12T01:49:48.461Z,0
2018-04-12T01:50:28.978Z,0
2018-04-12T01:51:09.495Z,0
2018-04-12T01:51:50.011Z,0
2018-04-12T01:52:30.534Z,0
2018-04-12T01:53:11.063Z,0
2018-04-12T01:53:51.575Z,0
2018-04-12T01:54:32.087Z,0
2018-04-12T01:55:12.608Z,0
2018-04-12T01:55:53.127Z,0
2018-04-12T01:56:33.637Z,0
2018-04-12T01:57:14.163Z,0
2018-04-12T01:57:54.684Z,0
2018-04-12T01:58:35.190Z,0
2018-04-12T01:59:15.708Z,0
2018-04-12T01:59:56.223Z,0
2018-04-12T02:00:36.742Z,0
2018-04-12T02:01:17.273Z,0
2018-04-12T02:01:57.801Z,0
2018-04-12T02:02:38.305Z,0
2018-04-12T02:03:18.822Z,0
2018-04-12T02:03:59.347Z,0
2018-04-12T02:04:39.862Z,0
2018-04-12T02:05:20.378Z,0
2018-04-12T02:06:00.891Z,0
2018-04-12T02:06:41.419Z,0
2018-04-12T02:07:21.935Z,0
2018-04-12T02:08:02.441Z,0
2018-04-12T02:08:42.966Z,0
2018-04-12T02:09:23.477Z,0
2018-04-12T02:10:04.012Z,0
2018-04-12T02:10:44.540Z,0
2018-04-12T02:11:25.056Z,0
2018-04-12T02:12:05.579Z,0
2018-04-12T02:12:46.097Z,0
2018-04-12T02:13:26.610Z,0
2018-04-12T02:14:07.129Z,0
2018-04-12T02:14:47.649Z,0
2018-04-12T02:15:28.158Z,0
2018-04-12T02:16:08.699Z,0
2018-04-12T02:16:49.215Z,0
2018-04-12T02:17:29.739Z,0
2018-04-12T02:18:10.276Z,0
2018-04-12T02:18:50.780Z,0
2018-04-12T02:19:31.320Z,0
2018-04-12T02:20:11.836Z,0
2018-04-12T02:20:52.358Z,0
2018-04-12T02:21:32.881Z,0
2018-04-12T02:22:13.407Z,0
2018-04-12T02:22:53.930Z,0
2018-04-12T02:23:34.460Z,0
2018-04-12T02:24:14.971Z,0
2018-04-12T02:24:55.489Z,0
2018-04-12T02:25:36.012Z,0
2018-04-12T02:26:16.539Z,0
2018-04-12T02:26:57.055Z,0
2018-04-12T02:27:37.567Z,0
2018-04-12T02:28:18.075Z,0
2018-04-12T02:28:58.594Z,0
2018-04-12T02:29:39.103Z,0
2018-04-12T02:30:19.626Z,0
2018-04-12T02:31:00.146Z,0
2018-04-12T02:31:40.661Z,0
2018-04-12T02:32:21.177Z,0
2018-04-12T02:33:01.705Z,0
2018-04-12T02:33:42.211Z,0
2018-04-12T02:34:22.722Z,0
2018-04-12T02:35:03.266Z,0
2018-04-12T02:35:43.756Z,0
2018-04-12T02:36:24.284Z,0
2018-04-12T02:37:04.799Z,0
2018-04-12T02:37:45.331Z,0
2018-04-12T02:38:25.843Z,0
2018-04-12T02:39:06.360Z,0
2018-04-12T02:39:46.874Z,0
2018-04-12T02:40:27.383Z,0
2018-04-12T02:41:07.913Z,0
2018-04-12T02:41:48.436Z,0
2018-04-12T02:42:28.954Z,0
2018-04-12T02:43:09.491Z,0
2018-04-12T02:43:50.001Z,0
2018-04-12T02:44:30.526Z,0
2018-04-12T02:45:11.048Z,0
2018-04-12T02:45:51.562Z,0
2018-04-12T02:46:32.077Z,0
2018-04-12T02:47:12.588Z,0
2018-04-12T02:47:53.103Z,0
2018-04-12T02:48:33.628Z,0
2018-04-12T02:49:14.141Z,0
2018-04-12T02:49:54.660Z,0
2018-04-12T02:50:35.190Z,0
2018-04-12T02:51:15.686Z,0
2018-04-12T02:51:56.216Z,0
2018-04-12T02:52:36.725Z,0
2018-04-12T02:53:17.245Z,0
2018-04-12T02:53:57.754Z,0
2018-04-12T02:54:38.273Z,0
2018-04-12T02:55:18.780Z,0
2018-04-12T02:55:59.292Z,0
2018-04-12T02:56:39.827Z,0
2018-04-12T02:57:20.347Z,0
2018-04-12T02:58:00.865Z,0
2018-04-12T02:58:41.377Z,0
2018-04-12T02:59:21.888Z,0
2018-04-12T03:00:02.404Z,0
2018-04-12T03:02:32.710Z,0
2018-04-12T03:03:13.230Z,0
2018-04-12T03:03:53.746Z,0
2018-04-12T03:04:34.252Z,0
2018-04-12T03:05:14.782Z,0
2018-04-12T03:05:55.278Z,0
2018-04-12T03:06:35.828Z,0
2018-04-12T03:07:16.322Z,0
2018-04-12T03:07:56.831Z,0
2018-04-12T03:08:37.344Z,0
2018-04-12T03:09:17.873Z,0
2018-04-12T03:09:58.391Z,0
2018-04-12T03:10:38.893Z,0
2018-04-12T03:11:19.405Z,0
2018-04-12T03:11:59.938Z,0
2018-04-12T03:12:40.471Z,0
2018-04-12T03:13:21.002Z,0
2018-04-12T03:14:01.521Z,0
2018-04-12T03:14:42.041Z,0
2018-04-12T03:15:22.563Z,0
2018-04-12T03:16:03.084Z,0
2018-04-12T03:16:43.609Z,0
2018-04-12T03:17:24.122Z,0
2018-04-12T03:18:04.640Z,0
2018-04-12T03:18:45.162Z,0
2018-04-12T03:19:25.679Z,0
2018-04-12T03:20:06.190Z,0
2018-04-12T03:20:46.705Z,0
2018-04-12T03:21:27.221Z,0
2018-04-12T03:22:07.763Z,0
2018-04-12T03:22:48.255Z,0
2018-04-12T03:23:28.785Z,0
2018-04-12T03:24:09.292Z,0
2018-04-12T03:24:49.818Z,0
2018-04-12T03:25:30.324Z,0
2018-04-12T03:26:10.839Z,0
2018-04-12T03:26:51.373Z,0
2018-04-12T03:27:31.896Z,0
2018-04-12T03:28:12.415Z,0
2018-04-12T03:28:52.923Z,0
2018-04-12T03:29:33.435Z,0
2018-04-12T03:30:13.953Z,0
2018-04-12T03:30:54.472Z,0
2018-04-12T03:31:34.983Z,0
2018-04-12T03:32:15.490Z,0
2018-04-12T03:32:56.004Z,0
2018-04-12T03:33:36.519Z,0
2018-04-12T03:34:17.044Z,0
2018-04-12T03:34:57.571Z,0
2018-04-12T03:35:38.077Z,0
2018-04-12T03:36:18.649Z,0
2018-04-12T03:36:59.195Z,0
2018-04-12T03:37:39.682Z,0
2018-04-12T03:38:20.192Z,0
2018-04-12T03:39:00.738Z,0
2018-04-12T03:39:41.250Z,0
2018-04-12T03:40:21.769Z,0
2018-04-12T03:41:02.275Z,0
2018-04-12T03:41:42.802Z,0
2018-04-12T03:42:23.328Z,0
2018-04-12T03:43:03.856Z,0
2018-04-12T03:43:44.444Z,0
2018-04-12T03:44:24.962Z,0
2018-04-12T03:45:05.510Z,0
2018-04-12T03:45:46.042Z,0
2018-04-12T03:46:26.550Z,0
2018-04-12T03:47:07.066Z,0
2018-04-12T03:47:47.577Z,0
2018-04-12T03:48:28.098Z,0
2018-04-12T03:50:41.391Z,0
2018-04-12T03:51:21.888Z,0
2018-04-12T03:52:02.413Z,0
2018-04-12T03:52:42.930Z,0
2018-04-12T03:53:23.447Z,0
2018-04-12T03:54:03.973Z,0
2018-04-12T03:54:44.497Z,0
2018-04-12T03:55:25.007Z,0
2018-04-12T03:56:05.553Z,0
2018-04-12T03:56:46.058Z,0
2018-04-12T03:57:26.591Z,0
2018-04-12T03:58:07.113Z,0
2018-04-12T03:58:47.633Z,0
2018-04-12T03:59:28.153Z,0
2018-04-12T04:00:08.662Z,0
2018-04-12T04:00:49.164Z,0
2018-04-12T04:01:29.682Z,0
2018-04-12T04:02:10.192Z,0
2018-04-12T04:02:50.707Z,0
2018-04-12T04:03:31.251Z,0
2018-04-12T04:04:11.759Z,0
2018-04-12T04:04:52.267Z,0
2018-04-12T04:05:32.791Z,0
2018-04-12T04:06:13.325Z,0
2018-04-12T04:06:53.834Z,0
2018-04-12T04:07:34.349Z,0
2018-04-12T04:08:14.904Z,0
2018-04-12T04:08:55.464Z,0
2018-04-12T04:09:36.005Z,0
2018-04-12T04:10:16.496Z,0
2018-04-12T04:10:57.003Z,0
2018-04-12T04:11:37.520Z,0
2018-04-12T04:12:18.034Z,0
2018-04-12T04:12:58.563Z,0
2018-04-12T04:13:39.087Z,0
2018-04-12T04:14:19.618Z,0
2018-04-12T04:15:00.112Z,0
2018-04-12T04:15:40.643Z,0
2018-04-12T04:16:21.225Z,0
2018-04-12T04:17:01.799Z,0
2018-04-12T04:17:42.305Z,0
2018-04-12T04:18:22.822Z,0
2018-04-12T04:19:03.341Z,0
2018-04-12T04:19:43.949Z,0
2018-04-12T04:20:26.447Z,0
2018-04-12T04:21:06.942Z,0
2018-04-12T04:21:47.443Z,0
2018-04-12T04:22:27.958Z,0
2018-04-12T04:23:08.471Z,0
2018-04-12T04:23:48.986Z,0
2018-04-12T04:24:29.521Z,0
2018-04-12T04:25:10.033Z,0
2018-04-12T04:25:50.565Z,0
2018-04-12T04:26:31.109Z,0
2018-04-12T04:27:11.772Z,0
2018-04-12T04:27:52.299Z,0
2018-04-12T04:28:32.821Z,0
2018-04-12T04:29:13.348Z,0
2018-04-12T04:29:53.864Z,0
2018-04-12T04:30:34.381Z,0
2018-04-12T04:31:14.923Z,0
2018-04-12T04:31:55.447Z,0
2018-04-12T04:32:35.970Z,0
2018-04-12T04:33:16.488Z,0
2018-04-12T04:33:57.026Z,0
2018-04-12T04:34:37.538Z,0
2018-04-12T04:35:18.060Z,0
2018-04-12T04:35:58.565Z,0
2018-04-12T04:36:39.074Z,0
2018-04-12T04:37:19.607Z,0
2018-04-12T04:38:00.112Z,0
2018-04-12T04:38:40.618Z,0
2018-04-12T04:39:21.130Z,0
2018-04-12T04:40:01.656Z,0
2018-04-12T04:40:42.170Z,0
2018-04-12T04:41:22.688Z,0
2018-04-12T04:42:03.208Z,0
2018-04-12T04:42:43.723Z,0
2018-04-12T04:43:24.253Z,0
2018-04-12T04:44:04.758Z,0
2018-04-12T04:44:45.299Z,0
2018-04-12T04:45:25.842Z,5
2018-04-12T04:46:07.455Z,5
2018-04-12T04:46:47.961Z,5
2018-04-12T04:47:28.475Z,5
2018-04-12T04:48:08.985Z,5
2018-04-12T04:48:49.495Z,5
2018-04-12T04:49:30.023Z,5
2018-04-12T04:50:10.556Z,5
2018-04-12T04:50:51.066Z,5
2018-04-12T04:51:31.565Z,5
2018-04-12T04:52:12.123Z,10
2018-04-12T04:52:52.622Z,10
2018-04-12T04:53:33.115Z,10
2018-04-12T04:54:13.630Z,10
2018-04-12T04:54:54.197Z,10
2018-04-12T04:55:34.649Z,10
2018-04-12T04:56:15.143Z,15
2018-04-12T04:56:55.652Z,15
2018-04-12T04:57:36.186Z,15
2018-04-12T04:58:16.712Z,15
2018-04-12T04:58:57.234Z,15
2018-04-12T04:59:37.741Z,20
2018-04-12T05:00:18.276Z,20
2018-04-12T05:00:58.823Z,20
2018-04-12T05:01:39.333Z,20
2018-04-12T05:02:19.831Z,25
2018-04-12T05:03:00.348Z,25
2018-04-12T05:03:40.915Z,25
2018-04-12T05:04:21.415Z,25
2018-04-12T05:05:01.940Z,30
2018-04-12T05:05:42.464Z,30
2018-04-12T05:06:23.013Z,30
2018-04-12T05:07:03.516Z,30
2018-04-12T05:07:44.020Z,30
2018-04-12T05:08:24.567Z,35
2018-04-12T05:09:05.104Z,35
2018-04-12T05:09:45.605Z,35
2018-04-12T05:10:26.112Z,35
2018-04-12T05:11:06.636Z,35
2018-04-12T05:11:47.152Z,35
2018-04-12T05:12:27.653Z,40
2018-04-12T05:13:08.209Z,40
2018-04-12T05:13:48.711Z,40
2018-04-12T05:14:29.247Z,40
2018-04-12T05:15:09.754Z,45
2018-04-12T05:15:50.268Z,45
2018-04-12T05:16:30.779Z,45
2018-04-12T05:17:11.293Z,45
2018-04-12T05:17:51.800Z,45
2018-04-12T05:18:32.308Z,45
2018-04-12T05:19:12.825Z,45
2018-04-12T05:19:53.356Z,45
2018-04-12T05:20:33.854Z,50
2018-04-12T05:21:14.371Z,50
2018-04-12T05:21:54.900Z,55
2018-04-12T05:22:35.427Z,55
2018-04-12T05:23:15.952Z,55
2018-04-12T05:23:56.520Z,50
2018-04-12T05:24:36.961Z,50
2018-04-12T05:25:17.493Z,50
2018-04-12T05:25:58.013Z,55
2018-04-12T05:26:38.532Z,50
2018-04-12T05:27:19.065Z,50
2018-04-12T05:27:59.587Z,50
2018-04-12T05:28:40.104Z,50
2018-04-12T05:29:20.627Z,50
2018-04-12T05:30:01.149Z,55
2018-04-12T05:30:41.652Z,55
2018-04-12T05:31:22.162Z,55
2018-04-12T05:32:02.677Z,60
2018-04-12T05:32:43.184Z,65
2018-04-12T05:33:23.709Z,65
2018-04-12T05:34:04.218Z,65
2018-04-12T05:34:44.730Z,70
2018-04-12T05:35:25.243Z,75
2018-04-12T05:36:05.875Z,80
2018-04-12T05:36:46.397Z,85
2018-04-12T05:37:28.953Z,85
2018-04-12T05:38:16.030Z,90
2018-04-12T05:39:00.696Z,90
2018-04-12T05:39:44.736Z,90
2018-04-12T05:40:28.027Z,90
2018-04-12T05:41:20.611Z,95
2018-04-12T05:42:08.048Z,100
2018-04-12T05:42:49.390Z,100
2018-04-12T05:43:30.855Z,100
2018-04-12T05:44:15.829Z,100
2018-04-12T05:45:00.025Z,100
2018-04-12T05:45:44.137Z,100
2018-04-12T05:46:27.769Z,95
2018-04-12T05:47:11.357Z,95
2018-04-12T05:47:52.810Z,95
2018-04-12T05:48:34.121Z,95
2018-04-12T05:49:14.874Z,95
2018-04-12T05:49:57.426Z,95
2018-04-12T05:50:41.025Z,95
2018-04-12T05:51:25.189Z,95
2018-04-12T05:52:10.190Z,90
2018-04-12T05:52:54.054Z,90
2018-04-12T05:53:36.305Z,90
2018-04-12T05:54:18.841Z,85
2018-04-12T05:55:00.206Z,85
2018-04-12T05:55:43.785Z,85
2018-04-12T05:56:25.466Z,90
2018-04-12T05:57:11.651Z,90
2018-04-12T05:57:54.131Z,90
2018-04-12T05:58:34.321Z,95
2018-04-12T05:59:14.828Z,95
2018-04-12T05:59:55.374Z,100
2018-04-12T06:00:36.199Z,105
2018-04-12T06:01:16.522Z,110
2018-04-12T06:01:57.123Z,115
2018-04-12T06:02:37.956Z,115
2018-04-12T06:03:18.565Z,120
2018-04-12T06:03:59.180Z,125
2018-04-12T06:04:40.074Z,130
2018-04-12T06:05:20.468Z,135
2018-04-12T06:06:01.565Z,135
2018-04-12T06:06:42.211Z,135
2018-04-12T06:07:22.913Z,135
2018-04-12T06:08:03.596Z,135
2018-04-12T06:08:44.090Z,135
2018-04-12T06:09:24.939Z,135
2018-04-12T06:10:05.578Z,140
2018-04-12T06:10:46.645Z,140
2018-04-12T06:11:26.930Z,140
2018-04-12T06:12:09.618Z,140
2018-04-12T06:14:47.053Z,140
2018-04-12T06:15:29.324Z,140
2018-04-12T06:16:13.249Z,140
2018-04-12T06:16:54.428Z,140
2018-04-12T06:17:36.705Z,140
2018-04-12T06:18:19.593Z,140
2018-04-12T06:19:00.845Z,145
2018-04-12T06:19:44.030Z,145
2018-04-12T06:22:10.115Z,135
2018-04-12T06:22:52.101Z,135
2018-04-12T06:23:36.109Z,135
2018-04-12T06:24:22.223Z,135
2018-04-12T06:25:05.226Z,135
2018-04-12T06:25:47.240Z,135
2018-04-12T06:26:28.341Z,130
2018-04-12T06:27:09.869Z,130
2018-04-12T06:27:52.573Z,130
2018-04-12T06:28:33.399Z,135
2018-04-12T06:29:16.363Z,130
2018-04-12T06:29:58.603Z,130
2018-04-12T06:30:40.185Z,130
2018-04-12T06:31:22.080Z,135
2018-04-12T06:32:03.318Z,135
2018-04-12T06:32:43.827Z,140
2018-04-12T06:33:24.346Z,145
2018-04-12T06:34:04.844Z,140
2018-04-12T06:34:45.526Z,145
2018-04-12T06:35:26.493Z,145
2018-04-12T06:36:06.709Z,145
2018-04-12T06:36:47.244Z,145
2018-04-12T06:37:27.866Z,145
2018-04-12T06:38:08.435Z,145
2018-04-12T06:38:48.983Z,140
2018-04-12T06:39:29.497Z,140
2018-04-12T06:40:10.001Z,140
2018-04-12T06:40:50.514Z,140
2018-04-12T06:41:31.032Z,140
2018-04-12T06:42:13.214Z,140
2018-04-12T06:42:53.718Z,140
2018-04-12T06:44:58.649Z,155
2018-04-12T06:45:39.186Z,160
2018-04-12T06:46:19.714Z,160
2018-04-12T06:47:00.270Z,155
2018-04-12T06:47:40.766Z,155
2018-04-12T06:48:21.418Z,145
2018-04-12T06:49:01.853Z,140
2018-04-12T06:49:42.379Z,145
2018-04-12T06:50:22.892Z,145
2018-04-12T06:51:03.406Z,140
2018-04-12T06:51:43.928Z,145
2018-04-12T06:52:24.465Z,145
2018-04-12T06:53:05.058Z,145
2018-04-12T06:53:45.721Z,150
2018-04-12T06:54:26.270Z,145
2018-04-12T06:55:06.901Z,145
2018-04-12T06:55:47.428Z,145
2018-04-12T06:56:27.959Z,145
2018-04-12T06:57:08.492Z,145
2018-04-12T06:57:49.008Z,145
2018-04-12T06:58:29.535Z,150
2018-04-12T06:59:10.062Z,150
2018-04-12T06:59:50.572Z,150
2018-04-12T07:00:31.083Z,165
2018-04-12T07:01:11.599Z,175
2018-04-12T07:01:52.114Z,170
2018-04-12T07:02:32.642Z,160
2018-04-12T07:03:13.442Z,165
2018-04-12T07:03:53.964Z,180
2018-04-12T07:04:34.498Z,175
2018-04-12T07:05:15.081Z,170
2018-04-12T07:05:55.605Z,170
2018-04-12T07:06:36.804Z,170
2018-04-12T07:07:17.395Z,170
2018-04-12T07:07:57.907Z,175
2018-04-12T07:08:38.879Z,190
2018-04-12T07:09:19.445Z,195
2018-04-12T07:09:59.966Z,200
2018-04-12T07:12:33.671Z,225
2018-04-12T07:13:14.108Z,240
2018-04-12T07:13:54.609Z,235
2018-04-12T07:14:35.173Z,245
2018-04-12T07:15:15.696Z,250
2018-04-12T07:15:56.215Z,255
2018-04-12T07:16:36.736Z,255
2018-04-12T07:17:17.244Z,260
2018-04-12T07:17:57.770Z,260
2018-04-12T07:18:38.289Z,265
2018-04-12T07:19:18.913Z,265
2018-04-12T07:19:59.364Z,270
2018-04-12T07:20:40.849Z,265
2018-04-12T07:21:20.418Z,265
2018-04-12T07:22:00.947Z,265
2018-04-12T07:22:41.456Z,265
2018-04-12T07:23:21.983Z,265
2018-04-12T07:24:02.568Z,265
2018-04-12T07:24:43.088Z,260
2018-04-12T07:25:23.603Z,260
2018-04-12T07:26:04.168Z,255
2018-04-12T07:26:44.692Z,245
2018-04-12T07:27:25.224Z,235
2018-04-12T07:28:05.748Z,220
2018-04-12T07:28:46.262Z,210
2018-04-12T07:29:26.772Z,205
2018-04-12T07:30:07.291Z,200
2018-04-12T07:30:47.806Z,200
2018-04-12T07:31:28.332Z,205
2018-04-12T07:32:08.848Z,205
2018-04-12T07:32:49.355Z,205
2018-04-12T07:33:29.894Z,205
2018-04-12T07:34:10.404Z,200
2018-04-12T07:34:50.933Z,195
2018-04-12T07:35:31.451Z,195
2018-04-12T07:36:12.861Z,190
2018-04-12T07:36:53.373Z,190
2018-04-12T07:37:33.904Z,185
2018-04-12T07:38:14.442Z,185
2018-04-12T07:38:54.952Z,185
2018-04-12T07:39:35.991Z,180
2018-04-12T07:40:16.496Z,170
2018-04-12T07:40:57.020Z,150
2018-04-12T07:41:37.546Z,145
2018-04-12T07:42:18.069Z,150
2018-04-12T07:42:58.583Z,155
2018-04-12T07:43:39.168Z,160
2018-04-12T07:44:19.633Z,165
2018-04-12T07:45:00.167Z,165
2018-04-12T07:45:40.659Z,155
2018-04-12T07:46:21.183Z,155
2018-04-12T07:47:01.702Z,150
2018-04-12T07:47:42.232Z,160
2018-04-12T07:48:22.778Z,155
2018-04-12T07:49:03.325Z,155
2018-04-12T07:49:43.804Z,155
2018-04-12T07:50:24.329Z,155
2018-04-12T07:51:04.844Z,150
2018-04-12T07:51:45.342Z,145
2018-04-12T07:52:25.849Z,135
2018-04-12T07:53:06.352Z,130
2018-04-12T07:53:46.920Z,135
2018-04-12T07:54:27.404Z,130
2018-04-12T07:55:07.968Z,125
2018-04-12T07:55:48.502Z,115
2018-04-12T07:56:29.025Z,100
2018-04-12T07:57:09.563Z,100
2018-04-12T07:57:50.084Z,100
2018-04-12T07:58:30.597Z,100
2018-04-12T07:59:11.125Z,100
2018-04-12T07:59:51.648Z,100
2018-04-12T08:00:32.176Z,100
2018-04-12T08:01:12.703Z,95
2018-04-12T08:01:53.222Z,95
2018-04-12T08:02:33.730Z,95
2018-04-12T08:03:14.237Z,100
2018-04-12T08:03:54.742Z,100
2018-04-12T08:04:35.266Z,105
2018-04-12T08:05:15.808Z,110
2018-04-12T08:05:56.343Z,125
2018-04-12T08:06:36.870Z,130
2018-04-12T08:07:17.393Z,130
2018-04-12T08:07:57.937Z,130
2018-04-12T08:08:38.458Z,135
2018-04-12T08:09:19.029Z,145
2018-04-12T08:09:59.544Z,145
2018-04-12T08:10:40.089Z,145
2018-04-12T08:11:20.600Z,150
2018-04-12T08:12:01.112Z,155
2018-04-12T08:12:41.637Z,160
2018-04-12T08:13:22.152Z,160
2018-04-12T08:14:03.401Z,165
2018-04-12T08:14:43.918Z,175
2018-04-12T08:15:24.426Z,175
2018-04-12T08:16:04.943Z,175
2018-04-12T08:16:45.498Z,175
2018-04-12T08:17:26.024Z,175
2018-04-12T08:18:06.630Z,180
2018-04-12T08:18:47.166Z,180
2018-04-12T08:19:27.687Z,180
2018-04-12T08:20:08.209Z,180
2018-04-12T08:20:48.778Z,180
2018-04-12T08:21:29.290Z,180
2018-04-12T08:22:09.851Z,180
2018-04-12T08:22:50.373Z,180
2018-04-12T08:23:30.918Z,175
2018-04-12T08:24:11.534Z,175
2018-04-12T08:24:52.064Z,175
2018-04-12T08:25:32.595Z,165
2018-04-12T08:26:13.104Z,160
2018-04-12T08:26:53.615Z,165
2018-04-12T08:27:34.130Z,165
2018-04-12T08:28:14.981Z,165
2018-04-12T08:28:55.557Z,165
2018-04-12T08:29:36.022Z,165
2018-04-12T08:30:16.556Z,165
2018-04-12T08:30:57.098Z,160
2018-04-12T08:31:37.624Z,155
2018-04-12T08:32:18.153Z,155
2018-04-12T08:32:58.671Z,155
2018-04-12T08:33:39.209Z,160
2018-04-12T08:34:19.725Z,160
2018-04-12T08:35:00.266Z,155
2018-04-12T08:35:40.797Z,155
2018-04-12T08:36:21.355Z,160
2018-04-12T08:37:01.863Z,160
2018-04-12T08:37:42.415Z,160
2018-04-12T08:38:22.963Z,160
2018-04-12T08:39:03.475Z,165
2018-04-12T08:39:44.006Z,165
2018-04-12T08:40:24.524Z,170
2018-04-12T08:41:05.048Z,170
2018-04-12T08:41:45.569Z,170
2018-04-12T08:42:26.129Z,175
2018-04-12T08:43:07.532Z,180
2018-04-12T08:43:48.036Z,180
2018-04-12T08:44:29.706Z,180
2018-04-12T08:45:10.122Z,185
2018-04-12T08:45:50.679Z,190
2018-04-12T08:46:31.196Z,195
2018-04-12T08:47:11.747Z,200
2018-04-12T08:47:52.314Z,205
2018-04-12T08:48:32.683Z,210
2018-04-12T08:49:13.257Z,225
2018-04-12T08:49:53.673Z,220
2018-04-12T08:50:34.135Z,220
2018-04-12T08:51:14.802Z,220
2018-04-12T08:51:55.298Z,215
2018-04-12T08:52:35.714Z,215
2018-04-12T08:53:16.216Z,215
2018-04-12T08:53:56.755Z,215
2018-04-12T08:54:37.303Z,220
2018-04-12T08:55:17.853Z,210
2018-04-12T08:55:58.328Z,210
2018-04-12T08:56:38.879Z,210
2018-04-12T08:57:19.384Z,210
2018-04-12T08:57:59.859Z,210
2018-04-12T08:58:40.313Z,210
2018-04-12T08:59:20.813Z,210
2018-04-12T09:00:01.307Z,210
2018-04-12T09:00:41.750Z,210
2018-04-12T09:01:22.323Z,210
2018-04-12T09:02:03.416Z,210
2018-04-12T09:02:43.957Z,210
2018-04-12T09:03:24.420Z,210
2018-04-12T09:04:04.933Z,210
2018-04-12T09:04:45.418Z,210
2018-04-12T09:05:25.908Z,210
2018-04-12T09:06:06.470Z,210
2018-04-12T09:06:46.998Z,210
2018-04-12T09:07:27.466Z,205
2018-04-12T09:08:08.091Z,205
2018-04-12T09:08:48.472Z,205
2018-04-12T09:09:28.988Z,205
2018-04-12T09:10:09.503Z,205
2018-04-12T09:10:49.951Z,205
2018-04-12T09:11:30.458Z,205
2018-04-12T09:12:11.117Z,205
2018-04-12T09:12:51.570Z,200
2018-04-12T09:13:32.072Z,200
2018-04-12T09:14:12.538Z,195
2018-04-12T09:14:53.008Z,195
2018-04-12T09:15:33.571Z,190
2018-04-12T09:16:13.978Z,185
2018-04-12T09:16:54.507Z,180
2018-04-12T09:17:34.932Z,180
2018-04-12T09:18:15.484Z,180
2018-04-12T09:18:55.943Z,170
2018-04-12T09:19:36.498Z,165
2018-04-12T09:20:16.963Z,165
2018-04-12T09:20:57.487Z,160
2018-04-12T09:21:37.957Z,155
2018-04-12T09:22:18.435Z,150
2018-04-12T09:22:58.928Z,150
2018-04-12T09:23:39.357Z,150
2018-04-12T09:24:19.903Z,150
2018-04-12T09:25:00.358Z,145
2018-04-12T09:25:40.913Z,140
2018-04-12T09:26:21.339Z,140
2018-04-12T09:27:01.832Z,135
2018-04-12T09:27:42.354Z,135
2018-04-12T09:28:22.864Z,135
2018-04-12T09:29:03.320Z,135
2018-04-12T09:29:43.860Z,135
2018-04-12T09:30:24.357Z,135
2018-04-12T09:31:04.842Z,135
2018-04-12T09:31:45.677Z,130
2018-04-12T09:32:26.154Z,130
2018-04-12T09:33:06.672Z,130
2018-04-12T09:33:47.161Z,130
2018-04-12T09:34:27.595Z,130
2018-04-12T09:35:08.132Z,125
2018-04-12T09:35:48.628Z,125
2018-04-12T09:36:29.099Z,125
2018-04-12T09:37:09.698Z,125
2018-04-12T09:37:50.242Z,125
2018-04-12T09:38:30.849Z,125
2018-04-12T09:39:11.370Z,125
2018-04-12T09:39:51.873Z,125
2018-04-12T09:40:32.341Z,125
2018-04-12T09:41:12.860Z,130
2018-04-12T09:41:53.336Z,130
2018-04-12T09:42:33.763Z,130
2018-04-12T09:43:14.440Z,135
2018-04-12T09:43:55.245Z,135
2018-04-12T09:44:36.099Z,140
2018-04-12T09:45:16.982Z,140
2018-04-12T09:45:57.609Z,140
2018-04-12T09:46:38.080Z,140
2018-04-12T09:47:18.552Z,140
2018-04-12T09:47:59.027Z,145
2018-04-12T09:48:39.593Z,140
2018-04-12T09:49:20.405Z,140
2018-04-12T09:50:00.938Z,140
2018-04-12T09:50:41.579Z,140
2018-04-12T09:51:22.130Z,135
2018-04-12T09:52:02.657Z,135
2018-04-12T09:52:43.177Z,130